Time;durP1;ratioP1;P1;durP2;ratioP2;P2;SDS_P1;SDS_P2;PMS_P1;PMS_P2;Temp;Humidity;BMP_temperature;BMP_pressure;BME280_temperature;BME280_humidity;BME280_pressure;Samples;Min_cycle;Max_cycle;Signal;HPM_P1;HPM_P2
2023/03/16 00:02:40;;;;;;;63.60;28.10;;;;;;;0.81;79.79;99209.85;273614;1269;22148;-84
2023/03/16 00:08:42;;;;;;;65.60;30.40;;;;;;;0.68;80.01;99211.78;270964;1269;22520;-84
2023/03/16 00:14:47;;;;;;;69.00;30.30;;;;;;;0.47;80.14;99219.46;270260;1258;22543;-83
2023/03/16 00:21:15;;;;;;;63.90;29.50;;;;;;;0.31;80.47;99227.60;270216;1270;22842;-82
2023/03/16 00:27:25;;;;;;;70.10;29.60;;;;;;;0.15;80.60;99235.05;269857;1275;23523;-82
2023/03/16 00:33:27;;;;;;;74.60;29.40;;;;;;;0.00;80.91;99241.58;270145;1269;22524;-83
2023/03/16 00:39:49;;;;;;;66.30;28.60;;;;;;;-0.15;81.24;99243.72;269673;1263;22636;-84
2023/03/16 00:46:31;;;;;;;62.90;27.80;;;;;;;-0.30;81.48;99245.95;272882;1269;22430;-84
2023/03/16 00:52:36;;;;;;;59.90;27.70;;;;;;;-0.41;81.81;99254.34;271070;1269;22557;-83
2023/03/16 00:58:58;;;;;;;60.80;29.10;;;;;;;-0.56;81.92;99257.40;272877;1267;22367;-82
2023/03/16 01:05:21;;;;;;;56.90;24.60;;;;;;;-0.67;81.89;99262.34;272862;1269;22237;-84
2023/03/16 01:11:23;;;;;;;65.10;27.90;;;;;;;-0.76;82.34;99265.39;273898;1269;22554;-84
2023/03/16 01:17:26;;;;;;;65.50;29.30;;;;;;;-0.85;82.47;99265.37;272563;1269;22226;-84
2023/03/16 01:24:08;;;;;;;75.30;32.00;;;;;;;-0.95;82.69;99268.12;273507;1268;22271;-84
2023/03/16 01:30:11;;;;;;;74.20;32.90;;;;;;;-1.04;83.41;99272.83;273843;1275;22190;-85
2023/03/16 01:36:15;;;;;;;80.30;37.80;;;;;;;-1.05;83.80;99273.11;273495;1269;22411;-84
2023/03/16 01:42:45;;;;;;;83.40;38.40;;;;;;;-1.04;84.33;99279.45;273876;1269;22202;-85
2023/03/16 01:49:49;;;;;;;89.30;40.30;;;;;;;-1.04;84.41;99283.47;273779;1265;22306;-85
2023/03/16 01:55:54;;;;;;;85.10;37.70;;;;;;;-1.06;84.29;99287.64;273929;1267;22398;-85
2023/03/16 02:01:57;;;;;;;87.30;41.90;;;;;;;-1.18;83.99;99290.06;270484;1270;22576;-85
2023/03/16 02:08:35;;;;;;;93.50;41.80;;;;;;;-1.29;84.49;99291.26;273919;1266;22446;-85
2023/03/16 02:15:20;;;;;;;91.80;45.20;;;;;;;-1.29;85.09;99294.65;272650;1269;23047;-85
2023/03/16 02:22:02;;;;;;;82.30;39.80;;;;;;;-1.30;85.36;99306.25;273640;1259;22199;-83
2023/03/16 02:28:48;;;;;;;92.50;42.40;;;;;;;-1.34;85.16;99310.67;273262;1271;22796;-83
2023/03/16 02:34:50;;;;;;;107.20;46.80;;;;;;;-1.41;85.47;99317.57;271250;1269;22542;-83
2023/03/16 02:41:20;;;;;;;105.90;49.20;;;;;;;-1.45;85.67;99328.70;271105;1269;22415;-82
2023/03/16 02:47:42;;;;;;;89.70;41.50;;;;;;;-1.51;85.73;99338.61;271795;1269;22522;-83
2023/03/16 02:53:53;;;;;;;90.70;44.60;;;;;;;-1.59;85.81;99348.85;270958;1269;22554;-82
2023/03/16 02:59:56;;;;;;;96.80;45.90;;;;;;;-1.70;85.94;99354.17;270897;1268;23172;-83
2023/03/16 03:06:00;;;;;;;92.30;41.80;;;;;;;-1.77;85.76;99357.00;273371;1269;23130;-83
2023/03/16 03:12:12;;;;;;;82.30;41.80;;;;;;;-1.85;85.78;99364.77;273128;1269;22325;-82
2023/03/16 03:18:14;;;;;;;104.10;46.60;;;;;;;-1.92;86.22;99371.89;273292;1269;22303;-84
2023/03/16 03:24:16;;;;;;;106.60;45.40;;;;;;;-1.96;86.53;99381.95;273345;1269;22335;-82
2023/03/16 03:30:25;;;;;;;102.00;46.80;;;;;;;-2.00;86.95;99385.32;273632;1269;22283;-83
2023/03/16 03:36:26;;;;;;;86.50;40.80;;;;;;;-1.99;87.34;99393.84;273813;1272;22371;-83
2023/03/16 03:42:38;;;;;;;92.40;42.50;;;;;;;-2.00;87.59;99401.58;273635;1259;23640;-83
2023/03/16 03:48:40;;;;;;;82.50;39.90;;;;;;;-2.02;87.43;99408.85;273713;1270;22380;-83
2023/03/16 03:54:51;;;;;;;93.30;42.10;;;;;;;-2.06;87.58;99413.34;273677;1271;22195;-83
2023/03/16 04:00:53;;;;;;;89.40;43.60;;;;;;;-2.11;87.87;99419.65;271431;1270;22571;-83
2023/03/16 04:06:55;;;;;;;93.50;43.10;;;;;;;-2.14;88.43;99428.65;272098;1269;23191;-83
2023/03/16 04:12:58;;;;;;;90.90;40.10;;;;;;;-2.16;88.70;99434.02;273802;1269;22284;-82
2023/03/16 04:19:11;;;;;;;89.00;45.20;;;;;;;-2.19;88.83;99437.22;273521;1269;22450;-83
2023/03/16 04:25:16;;;;;;;84.80;40.00;;;;;;;-2.19;89.01;99441.13;273632;1270;22497;-82
2023/03/16 04:31:18;;;;;;;84.60;39.60;;;;;;;-2.22;88.40;99446.09;273866;1276;22213;-83
2023/03/16 04:37:24;;;;;;;89.00;41.00;;;;;;;-2.30;88.58;99448.73;273661;1270;22996;-82
2023/03/16 04:43:26;;;;;;;91.10;42.90;;;;;;;-2.35;88.32;99452.90;273278;1270;293604;-82
2023/03/16 04:49:31;;;;;;;90.50;41.60;;;;;;;-2.39;88.60;99454.48;272689;1270;23128;-83
2023/03/16 04:55:41;;;;;;;82.80;40.90;;;;;;;-2.43;88.95;99458.86;271129;1269;22543;-83
2023/03/16 05:01:42;;;;;;;87.10;42.00;;;;;;;-2.43;89.75;99465.61;270384;1269;22564;-86
2023/03/16 05:07:44;;;;;;;84.50;40.20;;;;;;;-2.42;90.32;99466.84;272083;1269;23708;-82
2023/03/16 05:13:46;;;;;;;82.70;40.20;;;;;;;-2.38;90.55;99465.31;270726;1267;22352;-82
2023/03/16 05:19:51;;;;;;;93.10;42.70;;;;;;;-2.35;90.65;99475.04;273585;1269;22294;-83
2023/03/16 05:25:58;;;;;;;93.10;46.00;;;;;;;-2.32;90.71;99478.52;273505;1269;22420;-83
2023/03/16 05:32:00;;;;;;;106.80;51.20;;;;;;;-2.23;91.21;99485.73;271887;1270;22335;-83
2023/03/16 05:38:03;;;;;;;93.60;48.20;;;;;;;-2.07;91.36;99484.86;269844;1270;22636;-83
2023/03/16 05:44:06;;;;;;;100.60;51.60;;;;;;;-1.83;91.76;99487.39;272819;1255;22379;-83
2023/03/16 05:50:41;;;;;;;106.90;50.90;;;;;;;-1.56;92.04;99489.71;271584;1270;22599;-83
2023/03/16 05:57:36;;;;;;;97.70;51.20;;;;;;;-1.25;92.51;99495.83;269955;1254;25194;-84
2023/03/16 06:03:58;;;;;;;96.30;49.00;;;;;;;-0.81;93.11;99502.44;271960;1269;22305;-84
2023/03/16 06:10:41;;;;;;;92.10;45.10;;;;;;;-0.26;93.21;99506.89;271420;1269;23423;-83
2023/03/16 06:16:42;;;;;;;81.20;39.80;;;;;;;0.12;92.60;99511.41;273515;1269;22527;-83
2023/03/16 06:22:46;;;;;;;76.80;39.30;;;;;;;0.51;92.15;99519.36;270095;1269;22727;-83
2023/03/16 06:28:48;;;;;;;88.10;40.70;;;;;;;0.90;92.12;99529.95;273559;1259;22484;-84
2023/03/16 06:34:50;;;;;;;80.10;37.80;;;;;;;1.35;91.63;99534.54;272594;1269;25508;-84
2023/03/16 06:40:53;;;;;;;76.70;38.60;;;;;;;1.67;90.84;99538.19;273025;1269;25597;-85
2023/03/16 06:47:35;;;;;;;73.00;37.20;;;;;;;1.99;90.89;99544.79;273162;1260;22191;-85
2023/03/16 06:54:19;;;;;;;80.30;41.70;;;;;;;2.34;90.32;99549.64;273840;1269;22159;-85
2023/03/16 07:00:58;;;;;;;;;;;;;;;2.59;89.74;99550.73;273888;1273;23524;-85
2023/03/16 07:07:01;;;;;;;71.10;36.40;;;;;;;2.68;89.28;99559.41;273783;1256;23852;-86
2023/03/16 07:13:05;;;;;;;70.00;36.70;;;;;;;2.78;88.47;99567.09;273969;1273;22216;-86
2023/03/16 07:19:08;;;;;;;73.20;34.90;;;;;;;2.85;88.33;99572.48;272379;1270;22196;-87
2023/03/16 07:25:12;;;;;;;59.30;33.50;;;;;;;2.87;87.89;99575.09;273555;1275;22883;-85
2023/03/16 07:31:52;;;;;;;62.60;31.60;;;;;;;2.94;87.88;99578.02;273692;1270;22356;-84
2023/03/16 07:38:38;;;;;;;57.70;31.60;;;;;;;2.88;86.89;99581.05;273684;1269;22596;-85
2023/03/16 07:44:45;;;;;;;53.10;30.00;;;;;;;3.06;87.76;99583.39;274077;1270;22208;-85
2023/03/16 07:51:10;;;;;;;57.00;29.90;;;;;;;3.62;87.78;99593.39;273799;1269;22301;-85
2023/03/16 07:57:40;;;;;;;53.30;27.90;;;;;;;4.12;86.86;99592.50;273886;1269;22211;-84
2023/03/16 08:04:12;;;;;;;52.20;28.90;;;;;;;4.52;86.28;99590.89;273910;1269;22155;-84
2023/03/16 08:10:22;;;;;;;45.00;25.50;;;;;;;5.10;85.37;99589.83;274065;1254;23008;-84
2023/03/16 08:16:55;;;;;;;50.20;25.90;;;;;;;5.25;83.56;99591.39;273676;1276;22985;-84
2023/03/16 08:23:01;;;;;;;43.00;25.10;;;;;;;5.71;83.75;99597.25;273643;1259;22408;-84
2023/03/16 08:30:03;;;;;;;48.70;26.50;;;;;;;5.94;82.77;99608.45;273724;1269;22230;-84
2023/03/16 08:36:15;;;;;;;47.10;24.40;;;;;;;6.08;81.63;99609.53;273682;1271;22167;-84
2023/03/16 08:42:38;;;;;;;42.60;23.10;;;;;;;6.52;81.70;99610.69;273486;1259;22301;-85
2023/03/16 08:48:42;;;;;;;45.20;25.10;;;;;;;6.59;80.10;99606.45;273718;1274;23394;-86
2023/03/16 08:54:51;;;;;;;35.80;21.30;;;;;;;6.99;79.75;99601.40;271754;1269;25287;-84
2023/03/16 09:00:54;;;;;;;34.40;19.40;;;;;;;7.79;78.71;99600.21;271123;1260;23396;-85
2023/03/16 09:06:59;;;;;;;36.10;19.40;;;;;;;8.76;77.48;99600.06;271571;1268;22648;-85
2023/03/16 09:13:04;;;;;;;30.70;18.00;;;;;;;9.55;75.52;99602.11;274138;1269;22216;-84
2023/03/16 09:19:35;;;;;;;34.70;17.60;;;;;;;10.09;74.30;99603.98;273426;1269;22178;-84
2023/03/16 09:25:37;;;;;;;30.20;15.90;;;;;;;9.94;72.51;99598.74;271590;1269;24582;-84
2023/03/16 09:31:42;;;;;;;30.80;15.40;;;;;;;9.89;71.25;99601.74;271703;1269;23456;-84
2023/03/16 09:38:06;;;;;;;23.70;13.20;;;;;;;10.46;70.89;99602.34;273480;1267;22190;-84
2023/03/16 09:44:45;;;;;;;26.20;14.30;;;;;;;10.54;68.02;99605.81;272319;1268;22669;-83
2023/03/16 09:50:49;;;;;;;19.30;10.90;;;;;;;10.90;68.25;99599.54;273025;1269;22169;-83
2023/03/16 09:56:56;;;;;;;20.20;11.80;;;;;;;11.55;66.16;99596.36;273170;1269;22179;-83
2023/03/16 10:03:48;;;;;;;20.90;13.40;;;;;;;12.29;64.76;99599.23;273760;1269;23322;-85
2023/03/16 10:10:21;;;;;;;21.40;10.70;;;;;;;12.24;62.12;99605.66;270094;1269;22615;-82
2023/03/16 10:17:23;;;;;;;16.70;8.80;;;;;;;10.56;60.61;99612.43;270804;1269;25422;-84
2023/03/16 10:23:52;;;;;;;18.30;9.00;;;;;;;10.23;60.73;99614.83;272019;1269;22960;-84
2023/03/16 10:29:55;;;;;;;13.70;8.20;;;;;;;10.63;59.30;99618.74;273335;1269;22635;-85
2023/03/16 10:36:09;;;;;;;10.60;5.80;;;;;;;10.09;58.16;99621.37;273712;1268;22330;-85
2023/03/16 10:42:16;;;;;;;15.30;6.80;;;;;;;9.58;57.71;99622.64;273674;1269;22487;-83
2023/03/16 10:48:20;;;;;;;13.70;6.60;;;;;;;9.14;57.65;99620.42;273488;1268;23332;-85
2023/03/16 10:54:34;;;;;;;11.10;6.70;;;;;;;9.85;56.92;99621.33;270660;1268;23336;-80
2023/03/16 11:00:42;;;;;;;12.20;6.70;;;;;;;10.73;55.02;99623.95;270557;1269;22548;-85
2023/03/16 11:06:56;;;;;;;16.10;7.00;;;;;;;11.11;54.00;99622.28;270987;1269;23193;-84
2023/03/16 11:13:10;;;;;;;11.80;7.30;;;;;;;10.37;53.70;99621.59;270548;1269;24368;-84
2023/03/16 11:19:33;;;;;;;20.80;8.70;;;;;;;9.23;53.73;99621.25;273416;1271;22198;-83
2023/03/16 11:25:50;;;;;;;16.30;8.60;;;;;;;8.44;54.19;99631.76;272491;1269;22346;-83
2023/03/16 11:31:57;;;;;;;16.30;8.20;;;;;;;8.01;54.84;99629.56;269970;1269;22271;-83
2023/03/16 11:38:46;;;;;;;19.40;8.20;;;;;;;7.73;54.73;99625.20;270775;1269;23566;-83
2023/03/16 11:45:01;;;;;;;15.30;8.50;;;;;;;8.23;55.21;99625.35;270207;1269;22668;-83
2023/03/16 11:52:02;;;;;;;14.00;6.90;;;;;;;8.88;54.24;99617.20;270247;1269;22657;-83
2023/03/16 11:58:58;;;;;;;14.10;6.50;;;;;;;8.71;53.54;99619.44;270418;1269;23326;-84
2023/03/16 12:05:29;;;;;;;11.50;5.40;;;;;;;8.83;53.51;99610.96;271732;1269;22620;-84
2023/03/16 12:11:55;;;;;;;10.90;5.50;;;;;;;8.77;52.90;99611.85;271000;1269;22546;-84
2023/03/16 12:18:22;;;;;;;12.10;5.10;;;;;;;8.35;53.07;99619.79;271354;1269;22933;-84
2023/03/16 12:24:48;;;;;;;11.70;5.70;;;;;;;8.14;53.07;99619.94;273892;1269;22171;-84
2023/03/16 12:31:22;;;;;;;12.20;5.50;;;;;;;8.21;52.94;99623.50;273751;1269;22240;-84
2023/03/16 12:38:06;;;;;;;9.40;4.90;;;;;;;8.55;52.84;99623.66;273502;1272;22200;-81
2023/03/16 12:45:18;;;;;;;10.50;5.30;;;;;;;8.34;52.08;99618.06;273828;1269;22222;-84
2023/03/16 12:51:20;;;;;;;16.40;4.80;;;;;;;7.79;52.56;99612.67;273866;1269;22204;-85
2023/03/16 12:57:26;;;;;;;12.10;5.30;;;;;;;8.04;53.03;99609.49;273760;1269;22318;-82
2023/03/16 13:04:11;;;;;;;12.60;4.70;;;;;;;8.38;52.35;99610.30;273952;1275;22280;-82
2023/03/16 13:11:04;;;;;;;10.80;5.70;;;;;;;8.72;51.50;99613.87;273889;1269;23259;-84
2023/03/16 13:17:32;;;;;;;10.10;4.70;;;;;;;8.64;50.94;99615.51;273732;1269;23240;-84
2023/03/16 13:23:53;;;;;;;11.80;5.20;;;;;;;8.55;50.97;99612.84;273952;1269;22257;-85
2023/03/16 13:30:16;;;;;;;12.60;5.50;;;;;;;8.47;50.50;99616.04;272447;1269;22316;-84
2023/03/16 13:36:28;;;;;;;8.20;4.00;;;;;;;8.36;50.49;99618.04;272527;1269;22657;-85
2023/03/16 13:42:37;;;;;;;13.80;5.20;;;;;;;8.44;50.43;99613.45;270198;1268;22581;-83
2023/03/16 13:48:48;;;;;;;10.10;4.50;;;;;;;8.42;50.18;99608.49;272527;1252;22458;-85
2023/03/16 13:54:51;;;;;;;8.00;3.60;;;;;;;8.10;49.75;99612.96;272259;1269;22247;-84
2023/03/16 14:01:29;;;;;;;6.30;3.50;;;;;;;7.77;49.10;99615.59;273826;1269;22994;-84
2023/03/16 14:07:52;;;;;;;10.70;4.70;;;;;;;7.57;49.32;99617.17;273823;1270;22837;-85
2023/03/16 14:13:56;;;;;;;6.80;3.20;;;;;;;7.36;49.57;99623.71;274059;1269;23501;-84
2023/03/16 14:19:59;;;;;;;9.40;3.60;;;;;;;7.18;49.67;99621.08;273898;1259;22200;-85
2023/03/16 14:26:41;;;;;;;9.50;3.80;;;;;;;7.34;49.62;99618.05;273951;1268;23344;-85
2023/03/16 14:33:00;;;;;;;8.30;2.80;;;;;;;7.67;49.02;99622.48;273899;1269;24176;-83
2023/03/16 14:39:34;;;;;;;9.10;3.40;;;;;;;7.83;48.99;99626.92;272179;1259;22229;-83
2023/03/16 14:46:32;;;;;;;7.20;2.70;;;;;;;7.97;48.91;99632.50;273700;1269;22206;-84
2023/03/16 14:52:35;;;;;;;7.20;2.90;;;;;;;7.92;48.39;99631.00;273922;1269;22848;-84
2023/03/16 14:58:36;;;;;;;8.10;3.20;;;;;;;7.76;48.33;99633.77;271608;1269;23705;-82
2023/03/16 15:04:54;;;;;;;9.50;4.70;;;;;;;7.45;48.18;99636.63;273480;1269;23472;-84
2023/03/16 15:11:00;;;;;;;14.10;4.80;;;;;;;7.07;48.64;99637.96;273636;1269;23305;-84
2023/03/16 15:17:03;;;;;;;10.10;3.70;;;;;;;6.73;49.12;99640.40;273213;1269;22527;-84
2023/03/16 15:23:45;;;;;;;7.90;3.80;;;;;;;6.53;49.35;99635.30;272283;1260;22553;-84
2023/03/16 15:29:53;;;;;;;9.90;4.40;;;;;;;6.28;49.65;99638.80;273728;1269;23487;-84
2023/03/16 15:36:35;;;;;;;8.10;3.80;;;;;;;6.03;50.29;99639.63;272621;1269;23321;-84
2023/03/16 15:43:23;;;;;;;9.10;3.50;;;;;;;5.85;50.39;99637.43;274067;1269;23201;-84
2023/03/16 15:50:07;;;;;;;8.60;3.90;;;;;;;5.72;50.50;99639.90;272835;1269;22235;-83
2023/03/16 15:56:33;;;;;;;8.90;3.60;;;;;;;5.64;51.06;99644.83;273968;1269;22195;-84
2023/03/16 16:02:36;;;;;;;10.60;3.70;;;;;;;5.52;50.96;99638.14;273836;1276;23189;-82
2023/03/16 16:08:58;;;;;;;9.80;4.30;;;;;;;5.40;50.85;99641.02;273904;1276;22253;-84
2023/03/16 16:15:00;;;;;;;8.90;4.10;;;;;;;5.30;51.91;99651.19;273492;1269;22514;-83
2023/03/16 16:21:03;;;;;;;11.40;4.50;;;;;;;5.24;52.21;99655.96;270859;1269;22548;-83
2023/03/16 16:27:25;;;;;;;11.90;4.70;;;;;;;5.14;52.20;99657.84;270917;1259;22583;-82
2023/03/16 16:33:48;;;;;;;14.30;4.80;;;;;;;4.99;52.71;99663.23;273184;1270;22273;-82
2023/03/16 16:39:51;;;;;;;13.20;4.70;;;;;;;4.79;53.06;99667.08;273965;1275;22162;-83
2023/03/16 16:45:53;;;;;;;16.30;5.00;;;;;;;4.63;53.43;99673.13;272316;1269;1693405;-83
2023/03/16 16:51:58;;;;;;;11.20;4.40;;;;;;;4.45;53.27;99681.17;273896;1269;22252;-84
2023/03/16 16:58:01;;;;;;;9.90;4.40;;;;;;;4.23;53.69;99683.21;273868;1269;22309;-84
2023/03/16 17:04:24;;;;;;;11.50;4.00;;;;;;;4.04;54.14;99684.54;273756;1275;23448;-82
2023/03/16 17:10:47;;;;;;;12.90;4.30;;;;;;;3.86;54.45;99688.39;272828;1270;22231;-83
2023/03/16 17:17:19;;;;;;;17.20;6.40;;;;;;;3.71;54.84;99696.35;271121;1270;22556;-83
2023/03/16 17:24:01;;;;;;;23.40;9.50;;;;;;;3.58;55.32;99700.17;271907;1269;22312;-82
2023/03/16 17:30:28;;;;;;;21.50;9.70;;;;;;;3.33;55.57;99708.27;272697;1270;22484;-83
2023/03/16 17:36:30;;;;;;;75.50;33.10;;;;;;;2.99;56.16;99704.96;270821;1269;26545;-83
2023/03/16 17:43:02;;;;;;;54.20;22.50;;;;;;;2.51;56.42;99709.61;271298;1269;22521;-82
2023/03/16 17:49:16;;;;;;;48.80;21.30;;;;;;;2.09;57.17;99712.86;273054;1269;22756;-83
2023/03/16 17:55:37;;;;;;;45.50;18.40;;;;;;;1.82;57.78;99714.50;273954;1269;22194;-83
2023/03/16 18:01:40;;;;;;;45.20;18.70;;;;;;;1.63;58.14;99725.13;273631;1269;23055;-82
2023/03/16 18:07:49;;;;;;;54.40;22.40;;;;;;;1.50;58.76;99725.53;273898;1269;22184;-83
2023/03/16 18:13:51;;;;;;;61.20;28.70;;;;;;;1.43;59.35;99730.35;273850;1269;22330;-83
2023/03/16 18:19:53;;;;;;;68.30;30.30;;;;;;;1.28;59.87;99733.48;273886;1269;22566;-82
2023/03/16 18:26:05;;;;;;;77.60;33.20;;;;;;;1.00;60.29;99735.79;272705;1269;23678;-84
2023/03/16 18:32:30;;;;;;;64.80;30.50;;;;;;;0.73;60.88;99741.22;273846;1269;23658;-82
2023/03/16 18:39:00;;;;;;;86.70;37.00;;;;;;;0.59;61.79;99748.39;273597;1269;22387;-82
2023/03/16 18:45:02;;;;;;;95.40;36.80;;;;;;;0.39;62.06;99751.80;273550;1270;22192;-83
2023/03/16 18:51:25;;;;;;;76.20;32.10;;;;;;;0.15;62.60;99755.50;274035;1275;22241;-83
2023/03/16 18:57:28;;;;;;;95.40;38.80;;;;;;;-0.01;63.36;99761.84;273765;1257;23163;-83
2023/03/16 19:03:32;;;;;;;74.50;31.20;;;;;;;-0.17;63.73;99770.04;273674;1270;22365;-82
2023/03/16 19:09:35;;;;;;;76.10;29.70;;;;;;;-0.26;64.31;99777.29;273815;1269;22169;-82
2023/03/16 19:15:38;;;;;;;75.10;31.30;;;;;;;-0.37;64.99;99779.55;271456;1269;22556;-84
2023/03/16 19:21:41;;;;;;;80.10;36.20;;;;;;;-0.55;65.22;99787.05;272410;1270;22554;-83
2023/03/16 19:27:44;;;;;;;75.70;30.00;;;;;;;-0.66;65.60;99790.70;272887;1269;22394;-84
2023/03/16 19:33:50;;;;;;;79.20;32.20;;;;;;;-0.74;66.10;99796.09;273564;1275;22209;-83
2023/03/16 19:39:53;;;;;;;94.20;40.90;;;;;;;-0.83;66.81;99797.72;272604;1269;22444;-83
2023/03/16 19:46:36;;;;;;;94.80;41.20;;;;;;;-0.92;67.16;99799.41;273995;1272;22266;-83
2023/03/16 19:53:24;;;;;;;85.80;40.20;;;;;;;-1.11;67.39;99803.95;273763;1268;22261;-83
2023/03/16 20:00:32;;;;;;;78.10;31.20;;;;;;;-1.19;67.72;99809.77;274004;1269;22254;-84
2023/03/16 20:06:54;;;;;;;64.20;31.60;;;;;;;-1.19;69.14;99816.42;271228;1269;25475;-84
2023/03/16 20:12:57;;;;;;;70.80;35.00;;;;;;;-1.25;69.26;99816.83;271250;1272;22548;-83
2023/03/16 20:19:04;;;;;;;76.30;34.20;;;;;;;-1.41;69.24;99816.05;271535;1270;22531;-83
2023/03/16 20:25:06;;;;;;;66.20;32.20;;;;;;;-1.48;69.35;99819.22;271277;1273;22798;-84
2023/03/16 20:31:30;;;;;;;84.80;35.80;;;;;;;-1.58;69.90;99826.02;271040;1269;23548;-84
2023/03/16 20:38:05;;;;;;;89.90;39.60;;;;;;;-1.71;70.34;99822.06;273484;1271;22466;-84
2023/03/16 20:44:29;;;;;;;77.90;36.70;;;;;;;-1.82;70.55;99825.74;272665;1271;22398;-85
2023/03/16 20:50:33;;;;;;;78.90;34.60;;;;;;;-1.89;71.04;99826.48;271427;1269;25227;-85
2023/03/16 20:56:34;;;;;;;80.70;36.30;;;;;;;-1.94;71.26;99825.80;271555;1270;22538;-85
2023/03/16 21:03:17;;;;;;;76.40;33.50;;;;;;;-2.04;71.71;99824.86;271316;1269;22577;-85
2023/03/16 21:09:43;;;;;;;76.40;33.50;;;;;;;-2.14;72.29;99828.42;273023;1269;22227;-85
2023/03/16 21:15:49;;;;;;;81.00;33.60;;;;;;;-2.26;72.37;99823.25;273496;1269;22271;-85
2023/03/16 21:21:52;;;;;;;;;;;;;;;-2.32;72.91;99827.48;273987;1269;23623;-86
2023/03/16 21:27:54;;;;;;;74.00;34.10;;;;;;;-2.33;73.16;99834.25;272840;1269;22428;-85
2023/03/16 21:33:56;;;;;;;85.10;36.50;;;;;;;-2.43;73.40;99827.94;271810;1269;23430;-85
2023/03/16 21:40:38;;;;;;;63.70;29.20;;;;;;;-2.51;73.86;99824.95;273321;1275;22186;-85
2023/03/16 21:46:41;;;;;;;74.20;35.30;;;;;;;-2.52;74.16;99821.78;273705;1270;22364;-85
2023/03/16 21:52:43;;;;;;;76.90;35.60;;;;;;;-2.59;74.06;99826.88;273510;1269;22293;-85
2023/03/16 21:58:47;;;;;;;74.00;33.90;;;;;;;-2.61;74.38;99829.34;273250;1270;23329;-85
2023/03/16 22:04:49;;;;;;;73.50;34.40;;;;;;;-2.69;74.69;99836.05;273598;1269;22316;-84
2023/03/16 22:10:52;;;;;;;83.50;39.80;;;;;;;-2.74;75.40;99841.19;273717;1270;22539;-84
2023/03/16 22:16:54;;;;;;;83.70;39.60;;;;;;;-2.86;75.09;99838.77;273780;1270;22210;-85
2023/03/16 22:22:56;;;;;;;81.30;36.30;;;;;;;-2.95;75.50;99842.73;273762;1270;22388;-84
2023/03/16 22:29:02;;;;;;;85.10;35.10;;;;;;;-2.96;75.95;99834.44;273756;1260;23130;-85
2023/03/16 22:35:03;;;;;;;88.30;37.90;;;;;;;-3.07;75.74;99833.95;273774;1272;22316;-84
2023/03/16 22:41:06;;;;;;;70.10;31.60;;;;;;;-3.15;75.86;99828.94;273146;1269;22361;-84
2023/03/16 22:47:20;;;;;;;69.10;31.70;;;;;;;-3.21;76.23;99821.48;273734;1257;22256;-84
2023/03/16 22:53:31;;;;;;;72.90;32.10;;;;;;;-3.27;76.49;99823.84;274084;1260;22254;-84
2023/03/16 22:59:33;;;;;;;72.60;32.40;;;;;;;-3.32;76.69;99825.01;273976;1269;22193;-84
2023/03/16 23:05:55;;;;;;;54.10;26.60;;;;;;;-3.33;77.02;99821.25;273133;1255;22190;-83
2023/03/16 23:11:58;;;;;;;77.70;30.90;;;;;;;-3.31;77.51;99814.83;273666;1269;23372;-84
2023/03/16 23:17:59;;;;;;;71.20;30.90;;;;;;;-3.38;77.46;99818.98;272854;1268;22574;-83
2023/03/16 23:24:02;;;;;;;77.00;32.30;;;;;;;-3.41;77.72;99816.31;271382;1254;23022;-84
2023/03/16 23:30:16;;;;;;;83.50;33.80;;;;;;;-3.50;77.54;99805.73;270711;1269;22210;-83
2023/03/16 23:36:20;;;;;;;75.00;32.30;;;;;;;-3.64;77.64;99802.74;270667;1260;22581;-83
2023/03/16 23:42:22;;;;;;;77.60;34.50;;;;;;;-3.72;77.97;99804.21;272530;1253;23076;-83
2023/03/16 23:48:23;;;;;;;76.10;35.10;;;;;;;-3.78;78.07;99807.84;273558;1269;22411;-83
2023/03/16 23:54:45;;;;;;;84.30;35.90;;;;;;;-3.86;78.22;99810.01;273634;1269;22323;-83
